createdAt,value
2022-12-13T00:01:24.787Z,19.27
2022-12-13T00:03:55.546Z,18.20
2022-12-13T00:06:24.038Z,18.93
2022-12-13T00:08:52.328Z,19.00
2022-12-13T00:11:20.678Z,18.30
2022-12-13T00:13:49.081Z,19.40
2022-12-13T00:16:17.817Z,18.83
2022-12-13T00:18:46.192Z,17.77
2022-12-13T00:21:16.417Z,17.17
2022-12-13T00:23:44.769Z,18.37
2022-12-13T00:26:13.509Z,17.87
2022-12-13T00:28:41.894Z,18.03
2022-12-13T00:31:51.190Z,17.67
2022-12-13T00:33:58.703Z,17.37
2022-12-13T00:36:28.381Z,17.63
2022-12-13T00:39:02.857Z,17.80
2022-12-13T00:41:31.995Z,17.83
2022-12-13T00:44:00.515Z,16.97
2022-12-13T00:46:29.101Z,16.87
2022-12-13T00:48:58.379Z,18.20
2022-12-13T00:51:28.293Z,17.53
2022-12-13T00:53:56.711Z,17.80
2022-12-13T00:56:25.764Z,18.50
2022-12-13T00:58:54.232Z,18.23
2022-12-13T01:01:23.194Z,19.37
2022-12-13T01:03:51.737Z,19.53
2022-12-13T01:06:20.632Z,18.90
2022-12-13T01:08:50.397Z,18.50
2022-12-13T01:11:18.752Z,19.80
2022-12-13T01:13:47.113Z,20.23
2022-12-13T01:16:15.552Z,18.07
2022-12-13T01:18:44.058Z,19.90
2022-12-13T01:21:13.686Z,20.40
2022-12-13T01:23:42.291Z,19.70
2022-12-13T01:26:12.790Z,19.73
2022-12-13T01:28:41.096Z,19.23
2022-12-13T01:31:10.423Z,20.07
2022-12-13T01:33:38.769Z,19.80
2022-12-13T01:36:07.961Z,19.53
2022-12-13T01:38:37.794Z,19.07
2022-12-13T01:41:17.173Z,19.87
2022-12-13T01:43:55.580Z,18.67
2022-12-13T01:46:24.147Z,20.03
2022-12-13T01:48:55.508Z,19.13
2022-12-13T01:51:25.893Z,18.87
2022-12-13T01:53:54.201Z,18.13
2022-12-13T01:56:23.300Z,19.07
2022-12-13T01:58:51.688Z,19.60
2022-12-13T02:01:21.547Z,19.00
2022-12-13T02:03:50.067Z,19.03
2022-12-13T02:06:18.763Z,18.77
2022-12-13T02:08:47.219Z,17.87
2022-12-13T02:11:15.613Z,18.17
2022-12-13T02:13:43.947Z,18.57
2022-12-13T02:16:22.164Z,18.07
2022-12-13T02:18:56.746Z,17.63
2022-12-13T02:21:30.688Z,17.80
2022-12-13T02:24:11.058Z,19.40
2022-12-13T02:26:43.978Z,17.63
2022-12-13T02:29:30.512Z,19.07
2022-12-13T02:32:01.925Z,18.13
2022-12-13T02:34:34.200Z,17.73
2022-12-13T02:37:03.963Z,17.93
2022-12-13T02:39:32.642Z,18.03
2022-12-13T02:42:01.704Z,17.47
2022-12-13T02:44:30.427Z,18.83
2022-12-13T02:46:59.709Z,17.87
2022-12-13T02:49:30.435Z,17.93
2022-12-13T02:51:59.000Z,18.33
2022-12-13T02:54:27.371Z,18.63
2022-12-13T02:56:56.253Z,18.40
2022-12-13T02:59:24.772Z,18.87
2022-12-13T03:02:09.734Z,18.00
2022-12-13T03:05:03.244Z,17.80
2022-12-13T03:07:31.644Z,18.30
2022-12-13T03:10:01.789Z,17.70
2022-12-13T03:12:49.828Z,18.33
2022-12-13T03:15:19.149Z,18.43
2022-12-13T03:17:47.942Z,19.17
2022-12-13T03:20:23.227Z,18.40
2022-12-13T03:22:52.009Z,18.47
2022-12-13T03:25:31.809Z,18.40
2022-12-13T03:28:01.733Z,18.47
2022-12-13T03:30:31.041Z,17.73
2022-12-13T03:32:59.642Z,18.67
2022-12-13T03:35:34.151Z,18.93
2022-12-13T03:38:04.221Z,18.63
2022-12-13T03:40:32.668Z,18.33
2022-12-13T03:43:01.072Z,18.63
2022-12-13T03:45:29.607Z,17.90
2022-12-13T03:47:58.125Z,18.13
2022-12-13T03:50:27.599Z,18.57
2022-12-13T03:53:01.283Z,18.43
2022-12-13T03:55:29.817Z,19.17
2022-12-13T03:58:01.947Z,18.20
2022-12-13T04:00:33.141Z,18.70
2022-12-13T04:03:01.553Z,19.50
2022-12-13T04:05:31.711Z,18.87
2022-12-13T04:08:01.458Z,19.37
2022-12-13T04:10:29.934Z,17.63
2022-12-13T04:13:15.983Z,17.33
2022-12-13T04:15:49.195Z,17.40
2022-12-13T04:18:17.823Z,17.40
2022-12-13T04:20:46.213Z,18.70
2022-12-13T04:23:16.078Z,18.57
2022-12-13T04:25:44.837Z,17.67
2022-12-13T04:28:22.302Z,17.90
2022-12-13T04:30:53.356Z,17.83
2022-12-13T04:33:22.644Z,18.47
2022-12-13T04:35:51.467Z,19.53
2022-12-13T04:38:21.289Z,18.13
2022-12-13T04:40:49.713Z,18.07
2022-12-13T04:43:18.326Z,16.57
2022-12-13T04:45:46.922Z,17.47
2022-12-13T04:48:30.826Z,17.67
2022-12-13T04:51:01.319Z,18.27
2022-12-13T04:53:31.564Z,18.70
2022-12-13T04:56:00.242Z,17.80
2022-12-13T04:58:29.541Z,17.60
2022-12-13T05:00:58.042Z,17.90
2022-12-13T05:03:27.956Z,19.13
2022-12-13T05:05:57.039Z,18.53
2022-12-13T05:08:25.523Z,18.60
2022-12-13T05:10:55.966Z,18.53
2022-12-13T05:13:24.503Z,17.63
2022-12-13T05:15:56.712Z,18.53
2022-12-13T05:18:25.806Z,19.17
2022-12-13T05:20:54.264Z,18.33
2022-12-13T05:23:23.116Z,19.23
2022-12-13T05:25:51.794Z,18.23
2022-12-13T05:28:28.180Z,18.67
2022-12-13T05:30:57.539Z,19.27
2022-12-13T05:33:26.210Z,17.57
2022-12-13T05:35:59.356Z,19.33
2022-12-13T05:38:29.298Z,19.23
2022-12-13T05:40:57.758Z,18.90
2022-12-13T05:43:42.268Z,19.33
2022-12-13T05:46:11.971Z,19.47
2022-12-13T05:48:40.569Z,19.70
2022-12-13T05:51:10.547Z,19.50
2022-12-13T05:53:40.135Z,19.37
2022-12-13T05:56:08.894Z,19.80
2022-12-13T05:58:39.647Z,19.60
2022-12-13T06:01:08.728Z,18.53
2022-12-13T06:03:37.390Z,19.17
2022-12-13T06:06:06.246Z,20.47
2022-12-13T06:08:34.890Z,18.47
2022-12-13T06:11:10.760Z,18.73
2022-12-13T06:13:42.386Z,19.43
2022-12-13T06:16:23.139Z,19.27
2022-12-13T06:18:57.468Z,18.37
2022-12-13T06:21:33.348Z,19.33
2022-12-13T06:24:12.085Z,20.00
2022-12-13T06:26:40.519Z,19.63
2022-12-13T06:29:10.572Z,19.43
2022-12-13T06:31:39.026Z,18.80
2022-12-13T06:34:14.271Z,18.87
2022-12-13T06:36:43.459Z,18.47
2022-12-13T06:39:12.523Z,18.63
2022-12-13T06:41:41.113Z,19.03
2022-12-13T06:44:11.312Z,20.13
2022-12-13T06:46:40.914Z,18.90
2022-12-13T06:49:09.716Z,20.10
2022-12-13T06:51:38.346Z,19.30
2022-12-13T06:54:06.838Z,18.43
2022-12-13T06:56:35.386Z,19.57
2022-12-13T06:59:03.897Z,19.67
2022-12-13T07:01:37.331Z,18.50
2022-12-13T07:04:30.133Z,19.67
2022-12-13T07:06:54.964Z,19.77
2022-12-13T07:09:23.637Z,19.63
2022-12-13T07:11:52.670Z,19.57
2022-12-13T07:14:21.360Z,19.23
2022-12-13T07:16:51.269Z,19.50
2022-12-13T07:19:24.112Z,19.17
2022-12-13T07:21:53.189Z,19.97
2022-12-13T07:24:30.096Z,18.87
2022-12-13T07:26:58.744Z,19.63
2022-12-13T07:29:27.687Z,19.70
2022-12-13T07:32:01.105Z,18.93
2022-12-13T07:34:30.887Z,18.57
2022-12-13T07:36:59.699Z,18.83
2022-12-13T07:39:28.564Z,20.07
2022-12-13T07:41:57.062Z,20.47
2022-12-13T07:44:31.295Z,19.37
2022-12-13T07:47:01.258Z,19.03
2022-12-13T07:49:29.642Z,19.03
2022-12-13T07:51:58.198Z,19.53
2022-12-13T07:54:26.755Z,19.63
2022-12-13T07:56:58.544Z,19.80
2022-12-13T07:59:31.184Z,19.27
2022-12-13T08:02:01.897Z,20.27
2022-12-13T08:04:37.879Z,19.17
2022-12-13T08:07:09.094Z,20.33
2022-12-13T08:09:37.631Z,19.57
2022-12-13T08:12:06.476Z,18.90
2022-12-13T08:14:34.946Z,20.37
2022-12-13T08:17:04.734Z,20.30
2022-12-13T08:19:33.529Z,20.17
2022-12-13T08:22:02.445Z,21.97
2022-12-13T08:24:31.659Z,20.87
2022-12-13T08:27:01.897Z,21.97
2022-12-13T08:29:33.337Z,20.90
2022-12-13T08:32:04.792Z,19.37
2022-12-13T08:34:33.271Z,22.13
2022-12-13T08:37:03.602Z,21.20
2022-12-13T08:39:34.547Z,22.13
2022-12-13T08:42:16.388Z,21.27
2022-12-13T08:44:46.763Z,20.87
2022-12-13T08:47:22.896Z,21.67
2022-12-13T08:49:52.509Z,20.60
2022-12-13T08:52:20.960Z,20.73
2022-12-13T08:54:49.562Z,22.47
2022-12-13T08:57:18.093Z,22.40
2022-12-13T08:59:46.522Z,20.23
2022-12-13T09:02:16.471Z,22.17
2022-12-13T09:04:45.114Z,23.10
2022-12-13T09:07:13.620Z,22.00
2022-12-13T09:09:42.146Z,22.03
2022-12-13T09:12:30.878Z,23.47
2022-12-13T09:15:01.359Z,21.73
2022-12-13T09:17:37.020Z,22.30
2022-12-13T09:20:10.056Z,22.90
2022-12-13T09:23:01.929Z,21.60
2022-12-13T09:25:36.407Z,22.30
2022-12-13T09:28:07.012Z,23.57
2022-12-13T09:30:35.401Z,22.60
2022-12-13T09:33:17.533Z,22.27
2022-12-13T09:35:53.801Z,22.23
2022-12-13T09:38:22.385Z,22.87
2022-12-13T09:40:58.577Z,24.17
2022-12-13T09:43:31.889Z,24.87
2022-12-13T09:46:02.129Z,23.57
2022-12-13T09:48:34.918Z,23.67
2022-12-13T09:51:17.295Z,24.30
2022-12-13T09:53:52.370Z,23.27
2022-12-13T09:56:20.886Z,22.83
2022-12-13T09:58:50.228Z,23.40
2022-12-13T10:01:22.454Z,23.77
2022-12-13T10:03:54.054Z,24.20
2022-12-13T10:06:23.917Z,23.50
2022-12-13T10:08:57.864Z,23.80
2022-12-13T10:11:31.885Z,24.20
2022-12-13T10:14:02.270Z,23.60
2022-12-13T10:16:35.889Z,24.80
2022-12-13T10:19:11.243Z,26.03
2022-12-13T10:22:01.307Z,24.20
2022-12-13T10:24:36.914Z,25.63
2022-12-13T10:27:12.024Z,23.00
2022-12-13T10:29:46.067Z,23.97
2022-12-13T10:32:14.581Z,24.80
2022-12-13T10:34:44.517Z,24.37
2022-12-13T10:37:21.931Z,23.93
2022-12-13T10:39:50.310Z,24.53
2022-12-13T10:42:23.372Z,25.10
2022-12-13T10:45:11.411Z,23.87
2022-12-13T10:47:40.051Z,24.93
2022-12-13T10:50:17.294Z,24.30
2022-12-13T10:52:45.691Z,24.80
2022-12-13T10:55:23.165Z,25.43
2022-12-13T10:57:53.355Z,25.37
2022-12-13T11:00:32.319Z,25.83
2022-12-13T11:03:00.807Z,26.23
2022-12-13T11:05:32.413Z,25.30
2022-12-13T11:08:13.792Z,25.73
2022-12-13T11:10:42.100Z,23.77
2022-12-13T11:13:10.552Z,24.77
2022-12-13T11:15:39.827Z,25.43
2022-12-13T11:18:08.529Z,24.73
2022-12-13T11:20:38.956Z,25.63
2022-12-13T11:23:08.024Z,25.57
2022-12-13T11:25:38.699Z,24.80
2022-12-13T11:28:26.900Z,24.87
2022-12-13T11:31:01.459Z,25.07
2022-12-13T11:33:32.819Z,24.73
2022-12-13T11:36:05.071Z,24.07
2022-12-13T11:38:34.427Z,24.43
2022-12-13T11:41:07.544Z,24.83
2022-12-13T11:43:38.641Z,24.00
2022-12-13T11:46:07.864Z,24.03
2022-12-13T11:48:38.955Z,24.17
2022-12-13T11:51:09.172Z,24.03
2022-12-13T11:53:38.626Z,22.93
2022-12-13T11:56:07.960Z,22.83
2022-12-13T11:59:01.694Z,23.43
2022-12-13T12:01:28.101Z,22.33
2022-12-13T12:03:57.477Z,22.60
2022-12-13T12:06:28.013Z,24.10
2022-12-13T12:08:58.014Z,41.17
2022-12-13T12:11:30.036Z,31.90
2022-12-13T12:13:58.941Z,24.40
2022-12-13T12:16:30.858Z,23.00
2022-12-13T12:19:01.281Z,23.40
2022-12-13T12:22:04.787Z,22.17
2022-12-13T12:24:24.932Z,20.70
2022-12-13T12:26:55.363Z,22.83
2022-12-13T12:29:39.658Z,21.73
2022-12-13T12:32:09.613Z,21.67
2022-12-13T12:34:39.418Z,21.03
2022-12-13T12:37:11.861Z,22.23
2022-12-13T12:39:45.182Z,22.40
2022-12-13T12:42:20.789Z,21.80
2022-12-13T12:44:52.263Z,21.53
2022-12-13T12:47:55.112Z,21.77
2022-12-13T12:50:19.234Z,22.50
2022-12-13T12:52:59.112Z,22.23
2022-12-13T12:55:30.933Z,20.40
2022-12-13T12:58:01.823Z,20.57
2022-12-13T13:00:36.447Z,20.70
2022-12-13T13:03:17.238Z,22.27
2022-12-13T13:05:49.648Z,21.77
2022-12-13T13:08:20.416Z,21.83
2022-12-13T13:10:50.147Z,22.33
2022-12-13T13:13:35.314Z,22.57
2022-12-13T13:16:04.102Z,22.30
2022-12-13T13:18:45.799Z,22.60
2022-12-13T13:21:27.167Z,22.27
2022-12-13T13:24:08.388Z,22.37
2022-12-13T13:26:38.023Z,22.87
2022-12-13T13:29:26.937Z,23.30
2022-12-13T13:32:01.615Z,22.50
2022-12-13T13:34:31.703Z,21.80
2022-12-13T13:37:00.025Z,23.70
2022-12-13T13:39:55.752Z,22.37
2022-12-13T13:42:25.722Z,23.10
2022-12-13T13:45:09.345Z,23.40
2022-12-13T13:47:39.822Z,22.90
2022-12-13T13:50:19.259Z,23.03
2022-12-13T13:52:49.476Z,22.70
2022-12-13T13:55:41.702Z,22.43
2022-12-13T13:58:21.746Z,23.27
2022-12-13T14:01:05.523Z,23.13
2022-12-13T14:03:48.822Z,22.83
2022-12-13T14:06:32.192Z,22.33
2022-12-13T14:09:27.724Z,23.47
2022-12-13T14:12:14.602Z,23.43
2022-12-13T14:15:01.310Z,23.77
2022-12-13T14:17:55.369Z,23.57
2022-12-13T14:20:41.550Z,23.67
2022-12-13T14:23:11.309Z,23.77
2022-12-13T14:25:52.558Z,24.40
2022-12-13T14:28:23.781Z,24.27
2022-12-13T14:30:57.366Z,24.57
2022-12-13T14:33:28.839Z,23.40
2022-12-13T14:35:58.277Z,23.50
2022-12-13T14:38:27.465Z,22.77
2022-12-13T14:40:56.666Z,23.60
2022-12-13T14:43:26.036Z,23.63
2022-12-13T14:45:57.406Z,24.00
2022-12-13T14:48:29.626Z,23.57
2022-12-13T14:50:58.130Z,24.17
2022-12-13T14:53:28.464Z,23.43
2022-12-13T14:56:07.081Z,23.80
2022-12-13T14:58:37.173Z,24.43
2022-12-13T15:01:05.873Z,22.93
2022-12-13T15:03:36.689Z,24.37
2022-12-13T15:06:05.556Z,24.03
2022-12-13T15:08:34.108Z,24.07
2022-12-13T15:11:08.043Z,24.37
2022-12-13T15:13:38.836Z,24.57
2022-12-13T15:16:11.091Z,23.23
2022-12-13T15:18:41.472Z,24.07
2022-12-13T15:21:19.827Z,24.40
2022-12-13T15:23:48.773Z,23.73
2022-12-13T15:26:28.485Z,24.57
2022-12-13T15:28:58.452Z,23.67
2022-12-13T15:31:26.954Z,24.60
2022-12-13T15:34:01.069Z,23.93
2022-12-13T15:36:30.039Z,24.10
2022-12-13T15:39:01.702Z,24.20
2022-12-13T15:41:30.516Z,24.17
2022-12-13T15:43:59.836Z,23.63
2022-12-13T15:46:28.348Z,23.80
2022-12-13T15:48:58.456Z,23.00
2022-12-13T15:51:29.064Z,23.53
2022-12-13T15:54:02.637Z,23.30
2022-12-13T15:56:31.745Z,24.27
2022-12-13T15:59:01.211Z,23.33
2022-12-13T16:01:30.284Z,22.83
2022-12-13T16:04:03.038Z,24.00
2022-12-13T16:06:32.900Z,23.83
2022-12-13T16:09:02.099Z,23.77
2022-12-13T16:11:31.459Z,24.90
2022-12-13T16:14:34.180Z,24.17
2022-12-13T16:17:08.405Z,24.77
2022-12-13T16:19:38.832Z,24.30
2022-12-13T16:22:08.494Z,24.20
2022-12-13T16:24:37.672Z,24.13
2022-12-13T16:27:08.614Z,24.37
2022-12-13T16:29:37.438Z,22.63
2022-12-13T16:32:08.363Z,23.13
2022-12-13T16:34:38.911Z,23.77
2022-12-13T16:37:08.908Z,23.30
2022-12-13T16:39:55.325Z,23.33
2022-12-13T16:42:25.859Z,23.47
2022-12-13T16:45:17.792Z,23.80
2022-12-13T16:47:48.433Z,22.87
2022-12-13T16:50:19.853Z,23.53
2022-12-13T16:52:48.300Z,23.80
2022-12-13T16:55:22.574Z,24.90
2022-12-13T16:57:58.357Z,24.83
2022-12-13T17:00:27.523Z,24.47
2022-12-13T17:02:56.040Z,24.57
2022-12-13T17:05:25.928Z,24.67
2022-12-13T17:07:54.408Z,25.70
2022-12-13T17:10:28.699Z,24.97
2022-12-13T17:12:57.238Z,24.17
2022-12-13T17:15:25.726Z,24.40
2022-12-13T17:17:55.300Z,23.90
2022-12-13T17:20:24.986Z,23.67
2022-12-13T17:22:54.831Z,25.47
2022-12-13T17:25:23.247Z,24.53
2022-12-13T17:27:51.654Z,25.10
2022-12-13T17:30:20.425Z,24.03
2022-12-13T17:32:48.896Z,25.17
2022-12-13T17:35:18.522Z,25.53
2022-12-13T17:37:50.409Z,24.60
2022-12-13T17:40:20.344Z,24.80
2022-12-13T17:42:50.741Z,25.70
2022-12-13T17:45:19.651Z,24.97
2022-12-13T17:47:48.095Z,24.43
2022-12-13T17:50:21.972Z,25.67
2022-12-13T17:52:50.368Z,25.87
2022-12-13T17:55:20.255Z,25.87
2022-12-13T17:57:48.686Z,25.43
2022-12-13T18:00:17.777Z,27.37
2022-12-13T18:02:55.638Z,25.40
2022-12-13T18:05:26.265Z,26.83
2022-12-13T18:07:54.766Z,25.80
2022-12-13T18:10:29.557Z,27.23
2022-12-13T18:12:59.027Z,26.37
2022-12-13T18:15:27.569Z,25.40
2022-12-13T18:18:13.433Z,25.27
2022-12-13T18:20:42.212Z,26.57
2022-12-13T18:23:12.613Z,26.93
2022-12-13T18:25:42.923Z,27.23
2022-12-13T18:28:11.600Z,26.33
2022-12-13T18:30:40.027Z,27.57
2022-12-13T18:33:12.515Z,26.80
2022-12-13T18:35:41.040Z,24.67
2022-12-13T18:38:09.505Z,27.10
2022-12-13T18:40:38.001Z,25.87
2022-12-13T18:43:07.896Z,26.70
2022-12-13T18:45:36.417Z,27.60
2022-12-13T18:48:04.935Z,27.00
2022-12-13T18:50:33.416Z,26.83
2022-12-13T18:53:01.779Z,26.70
2022-12-13T18:55:30.799Z,26.30
2022-12-13T18:57:59.267Z,27.03
2022-12-13T19:00:29.852Z,27.20
2022-12-13T19:02:58.966Z,27.87
2022-12-13T19:05:30.679Z,27.07
2022-12-13T19:07:59.068Z,26.20
2022-12-13T19:10:27.771Z,25.87
2022-12-13T19:12:56.187Z,27.47
2022-12-13T19:15:24.546Z,27.23
2022-12-13T19:17:54.364Z,25.57
2022-12-13T19:20:22.960Z,26.30
2022-12-13T19:22:51.620Z,25.77
2022-12-13T19:25:20.625Z,25.67
2022-12-13T19:27:49.381Z,24.40
2022-12-13T19:30:22.939Z,24.50
2022-12-13T19:32:51.700Z,25.70
2022-12-13T19:35:22.553Z,24.03
2022-12-13T19:37:50.889Z,25.77
2022-12-13T19:40:19.470Z,25.97
2022-12-13T19:42:48.869Z,24.97
2022-12-13T19:45:17.343Z,25.90
2022-12-13T19:47:46.726Z,23.97
2022-12-13T19:50:17.537Z,24.67
2022-12-13T19:52:48.332Z,24.17
2022-12-13T19:55:16.823Z,24.13
2022-12-13T19:57:45.383Z,24.17
2022-12-13T20:00:20.097Z,25.27
2022-12-13T20:02:48.538Z,24.37
2022-12-13T20:05:16.918Z,24.57
2022-12-13T20:07:46.731Z,24.87
2022-12-13T20:10:17.002Z,25.40
2022-12-13T20:12:45.578Z,25.93
2022-12-13T20:15:14.068Z,24.90
2022-12-13T20:17:42.480Z,24.47
2022-12-13T20:20:11.395Z,23.63
2022-12-13T20:22:39.756Z,22.53
2022-12-13T20:25:10.571Z,22.67
2022-12-13T20:27:38.989Z,24.73
2022-12-13T20:30:08.230Z,23.53
2022-12-13T20:32:36.650Z,23.87
2022-12-13T20:35:05.208Z,21.07
2022-12-13T20:37:33.930Z,22.17
2022-12-13T20:40:02.278Z,21.47
2022-12-13T20:42:32.076Z,22.53
2022-12-13T20:45:00.673Z,22.53
2022-12-13T20:47:31.851Z,23.60
2022-12-13T20:50:03.497Z,22.60
2022-12-13T20:52:32.620Z,21.47
2022-12-13T20:55:07.552Z,22.37
2022-12-13T20:57:37.731Z,22.17
2022-12-13T21:00:08.285Z,23.83
2022-12-13T21:02:36.816Z,23.00
2022-12-13T21:05:05.354Z,21.73
2022-12-13T21:07:52.058Z,22.30
2022-12-13T21:10:20.510Z,22.20
2022-12-13T21:12:50.389Z,22.73
2022-12-13T21:15:21.664Z,21.63
2022-12-13T21:17:50.090Z,21.37
2022-12-13T21:20:18.642Z,22.03
2022-12-13T21:22:47.092Z,21.80
2022-12-13T21:25:19.629Z,22.20
2022-12-13T21:27:48.458Z,22.73
2022-12-13T21:30:19.429Z,22.80
2022-12-13T21:32:51.454Z,21.83
2022-12-13T21:35:21.372Z,20.27
2022-12-13T21:37:49.751Z,21.67
2022-12-13T21:40:18.284Z,22.20
2022-12-13T21:42:46.837Z,21.70
2022-12-13T21:45:15.341Z,20.10
2022-12-13T21:47:45.672Z,21.43
2022-12-13T21:50:14.516Z,21.40
2022-12-13T21:52:48.034Z,21.83
2022-12-13T21:58:24.041Z,20.83
2022-12-13T22:00:52.699Z,20.77
2022-12-13T22:03:22.927Z,20.23
2022-12-13T22:05:51.416Z,19.30
2022-12-13T22:08:20.557Z,20.27
2022-12-13T22:11:06.930Z,20.80
2022-12-13T22:13:35.598Z,20.17
2022-12-13T22:16:04.303Z,20.37
2022-12-13T22:18:34.691Z,19.90
2022-12-13T22:21:03.318Z,21.93
2022-12-13T22:23:32.003Z,20.50
2022-12-13T22:26:00.473Z,20.03
2022-12-13T22:28:32.164Z,19.33
2022-12-13T22:31:00.874Z,18.73
2022-12-13T22:33:29.366Z,19.30
2022-12-13T22:35:59.255Z,17.80
2022-12-13T22:38:28.212Z,18.80
2022-12-13T22:41:01.019Z,19.03
2022-12-13T22:43:29.700Z,20.33
2022-12-13T22:46:02.631Z,19.63
2022-12-13T22:48:32.879Z,18.97
2022-12-13T22:51:06.131Z,19.80
2022-12-13T22:53:34.583Z,20.00
2022-12-13T22:56:06.568Z,19.30
2022-12-13T22:58:35.060Z,18.93
2022-12-13T23:01:08.795Z,19.13
2022-12-13T23:03:40.757Z,18.73
2022-12-13T23:06:11.835Z,18.37
2022-12-13T23:08:43.499Z,18.50
2022-12-13T23:11:30.037Z,17.73
2022-12-13T23:13:59.141Z,18.13
2022-12-13T23:16:28.506Z,18.73
2022-12-13T23:19:17.276Z,18.03
2022-12-13T23:21:48.470Z,19.17
2022-12-13T23:24:17.310Z,19.60
2022-12-13T23:26:49.200Z,18.37
2022-12-13T23:29:18.678Z,18.97
2022-12-13T23:31:48.762Z,19.27
2022-12-13T23:34:17.861Z,16.73
2022-12-13T23:36:50.983Z,17.57
2022-12-13T23:39:19.461Z,18.70
2022-12-13T23:41:47.888Z,16.77
2022-12-13T23:44:16.422Z,17.43
2022-12-13T23:46:48.432Z,17.30
2022-12-13T23:49:17.627Z,17.20
2022-12-13T23:51:46.205Z,17.77
2022-12-13T23:54:19.364Z,17.87
2022-12-13T23:56:48.000Z,16.60
2022-12-13T23:59:19.499Z,17.23
